Aeroporto :
LOGIN :

Iscrizione | Disclaimer

   EN    FR    IT 

 










Sommario :    VFR   VFR Marginale   IFR   IFR Intensivo   IFR Molto Intensivo
Visibilità : 
Base nubi : 
>= 8 km
>= 3000ft
5 / 8 km
1000 / 3000 ft
1500m / 5 km
500 / 1000 ft
800 / 1500m
200 / 500 ft
< 800m
< 200 ft
Simboli :   Temporali  Nebbia  Neve Forte  Precipitazioni Forti  Vento > 20 kt
SIGMETs :   Varie  Temporali  Ghiacco  Turbolenza  Onda orograficha  Ceneri Vulcaniche






- Altitudine del aeroporto : 194 ft
- Codice IATA : ANE


LFJR - Angers Marcé

ULTIMO METAR :
  • 211600Z AUTO 24007KT 9999 BKN038 10/03 Q1031

METARs OBSOLETI :
  • 211530Z AUTO 24009KT 9999 BKN038 10/02 Q1031
  • 211500Z AUTO 22008KT 190V260 9999 BKN039 10/03 Q1031
  • 211430Z AUTO 23007KT 200V270 9999 FEW034 BKN041 10/03 Q1032
  • 211400Z AUTO 25007KT 9999 OVC042 10/03 Q1032
  • 211330Z AUTO 27007KT 230V310 9999 OVC045 10/02 Q1032

Previsioni scadute.



MetMap, La meteo Aeronautica in un colpo d'occhio ! - Copyright ORBIFLY Dicembre 2007 - Disclaimer

ORBIFLY MET'MAP TEAM :

Programmazione e sviluppo : Alexandra Zaïnal
Concezione : Baudouin d'Aumeries
Aiuto per la programmazione : Marc-Olivier Méhu
Supporto tecnico e logistico : Manuel Goepfert
Aiuto per la traduzione : Arnaldo La Scala

Contatto : metmap@orbifly.com




FONTI E CREDITI :

   NOAA